If you wish to contribute or participate in the discussions about articles you are invited to join SKYbrary as a registered user

 Actions

Bou Saada Airport

From SKYbrary Wiki

DAAD
Airport
ICAO: DAAD
Summary
Name Bou Saada Airport
Region Africa
Territory Algeria DZ.gif
Location , M'sila
Serving Bou Saada
Elevation 459.029 m
1,506 ft
1,506 ft459.029 m
Type medium airport
Coordinates 35° 19' 57.00" N, 4° 12' 23.00" E
Runways
Designator Length Width Surface ROPS
4/22 2200 m7,217.848 ft
30 m98.425 ft
ASP /


METAR
Observation DAAD 111000Z 32019KT 9999 SCT026 16/09 Q1015
Station Bou-Saada
Date/Time 11 April 2019 10:00:00
Wind direction 320°
Wind speed 19 kts
Lowest cloud amount scattered clouds
Temperature 16°C
Dew point 9°C
Humidity 63%
QNH 1015 hPa
Weather condition n/a